createdAt,value
2022-09-01T00:01:47.827Z,17.77
2022-09-01T00:04:17.026Z,15.93
2022-09-01T00:06:44.267Z,24.40
2022-09-01T00:09:14.940Z,23.00
2022-09-01T00:11:50.292Z,22.95
2022-09-01T00:14:30.686Z,21.00
2022-09-01T00:17:03.672Z,18.20
2022-09-01T00:19:30.995Z,16.00
2022-09-01T00:21:57.763Z,20.05
2022-09-01T00:24:26.225Z,21.92
2022-09-01T00:26:54.826Z,20.52
2022-09-01T00:29:22.599Z,19.63
2022-09-01T00:31:49.976Z,17.30
2022-09-01T00:34:17.350Z,15.80
2022-09-01T00:36:44.649Z,18.88
2022-09-01T00:39:12.461Z,17.27
2022-09-01T00:41:42.847Z,19.45
2022-09-01T00:44:14.242Z,20.67
2022-09-01T00:46:51.112Z,23.95
2022-09-01T00:49:29.610Z,29.17
2022-09-01T00:52:06.676Z,23.73
2022-09-01T00:54:40.031Z,26.35
2022-09-01T00:57:09.492Z,26.80
2022-09-01T00:59:42.691Z,28.15
2022-09-01T01:02:10.975Z,25.30
2022-09-01T01:04:37.789Z,22.50
2022-09-01T01:07:06.398Z,24.98
2022-09-01T01:09:38.553Z,28.73
2022-09-01T01:12:07.569Z,29.98
2022-09-01T01:14:36.860Z,32.50
2022-09-01T01:17:04.185Z,36.35
2022-09-01T01:20:08.835Z,38.05
2022-09-01T01:23:10.858Z,36.50
2022-09-01T01:26:03.361Z,37.65
2022-09-01T01:28:36.055Z,31.42
2022-09-01T01:31:11.862Z,33.30
2022-09-01T01:33:44.499Z,30.60
2022-09-01T01:36:19.290Z,35.23
2022-09-01T01:38:49.499Z,34.42
2022-09-01T01:41:19.582Z,29.10
2022-09-01T01:43:48.180Z,22.05
2022-09-01T01:46:18.198Z,25.10
2022-09-01T01:48:45.985Z,18.17
2022-09-01T01:51:13.906Z,18.08
2022-09-01T01:53:40.977Z,17.48
2022-09-01T01:56:09.017Z,21.90
2022-09-01T01:58:36.408Z,22.52
2022-09-01T02:01:12.761Z,29.80
2022-09-01T02:03:40.073Z,32.53
2022-09-01T02:06:12.052Z,31.02
2022-09-01T02:08:41.166Z,31.42
2022-09-01T02:11:08.536Z,29.67
2022-09-01T02:13:35.901Z,30.93
2022-09-01T02:16:07.747Z,26.60
2022-09-01T02:18:38.428Z,26.88
2022-09-01T02:21:15.062Z,27.10
2022-09-01T02:23:43.243Z,26.33
2022-09-01T02:26:16.571Z,26.10
2022-09-01T02:28:50.919Z,24.67
2022-09-01T02:31:22.951Z,25.70
2022-09-01T02:33:50.464Z,24.17
2022-09-01T02:36:19.291Z,25.70
2022-09-01T02:38:53.396Z,25.90
2022-09-01T02:41:23.734Z,23.63
2022-09-01T02:43:50.950Z,23.67
2022-09-01T02:46:24.370Z,29.17
2022-09-01T02:48:53.173Z,26.00
2022-09-01T02:51:22.636Z,23.57
2022-09-01T02:53:52.477Z,22.98
2022-09-01T02:56:25.303Z,21.15
2022-09-01T02:58:54.162Z,23.80
2022-09-01T03:01:29.220Z,21.25
2022-09-01T03:04:02.934Z,20.77
2022-09-01T03:06:34.191Z,17.98
2022-09-01T03:09:04.145Z,21.05
2022-09-01T03:11:33.403Z,24.08
2022-09-01T03:14:00.513Z,20.73
2022-09-01T03:16:30.480Z,17.13
2022-09-01T03:18:58.583Z,24.15
2022-09-01T03:21:25.943Z,18.67
2022-09-01T03:23:53.862Z,22.80
2022-09-01T03:26:22.470Z,18.33
2022-09-01T03:28:52.440Z,20.53
2022-09-01T03:31:20.230Z,22.02
2022-09-01T03:33:48.837Z,19.67
2022-09-01T03:36:22.000Z,19.05
2022-09-01T03:38:50.423Z,27.73
2022-09-01T03:41:22.388Z,21.63
2022-09-01T03:43:50.003Z,23.77
2022-09-01T03:46:21.788Z,14.98
2022-09-01T03:48:51.726Z,17.00
2022-09-01T03:51:22.645Z,18.35
2022-09-01T03:53:54.763Z,17.53
2022-09-01T03:56:25.558Z,12.82
2022-09-01T03:58:53.647Z,18.35
2022-09-01T04:01:21.983Z,16.25
2022-09-01T04:03:51.241Z,16.58
2022-09-01T04:06:24.294Z,13.67
2022-09-01T04:08:56.690Z,16.92
2022-09-01T04:11:25.278Z,17.15
2022-09-01T04:13:52.969Z,18.58
2022-09-01T04:16:44.457Z,17.20
2022-09-01T04:19:20.258Z,16.47
2022-09-01T04:21:50.463Z,14.63
2022-09-01T04:24:19.114Z,18.35
2022-09-01T04:26:49.551Z,17.48
2022-09-01T04:29:24.186Z,19.77
2022-09-01T04:31:52.120Z,17.47
2022-09-01T04:34:22.410Z,20.17
2022-09-01T04:36:54.502Z,19.05
2022-09-01T04:39:22.886Z,17.58
2022-09-01T04:41:51.197Z,20.50
2022-09-01T04:44:19.005Z,24.40
2022-09-01T04:46:48.048Z,24.77
2022-09-01T04:49:20.621Z,22.25
2022-09-01T04:51:53.633Z,22.02
2022-09-01T04:54:22.806Z,19.25
2022-09-01T04:56:52.397Z,20.77
2022-09-01T04:59:22.137Z,20.95
2022-09-01T05:01:57.547Z,17.85
2022-09-01T05:04:28.190Z,19.05
2022-09-01T05:06:59.790Z,22.77
2022-09-01T05:09:35.617Z,20.07
2022-09-01T05:12:16.067Z,23.73
2022-09-01T05:14:48.563Z,22.35
2022-09-01T05:17:19.493Z,18.95
2022-09-01T05:19:48.705Z,16.17
2022-09-01T05:22:17.758Z,20.13
2022-09-01T05:24:55.407Z,20.23
2022-09-01T05:27:22.908Z,17.80
2022-09-01T05:29:50.461Z,18.80
2022-09-01T05:32:17.813Z,17.75
2022-09-01T05:34:46.128Z,17.53
2022-09-01T05:37:16.178Z,19.50
2022-09-01T05:39:43.100Z,17.88
2022-09-01T05:42:10.136Z,17.83
2022-09-01T05:44:44.092Z,18.80
2022-09-01T05:47:20.606Z,14.00
2022-09-01T05:49:50.241Z,17.38
2022-09-01T05:52:17.412Z,14.85
2022-09-01T05:54:47.984Z,15.82
2022-09-01T05:57:33.888Z,15.48
2022-09-01T06:00:12.305Z,16.17
2022-09-01T06:02:42.890Z,13.80
2022-09-01T06:05:15.787Z,13.73
2022-09-01T06:07:44.278Z,15.20
2022-09-01T06:10:14.464Z,16.20
2022-09-01T06:12:41.554Z,14.40
2022-09-01T06:15:15.897Z,14.60
2022-09-01T06:17:46.339Z,17.45
2022-09-01T06:20:14.075Z,15.77
2022-09-01T06:22:44.161Z,16.63
2022-09-01T06:25:11.387Z,18.50
2022-09-01T06:27:43.218Z,17.38
2022-09-01T06:30:20.127Z,17.40
2022-09-01T06:32:54.230Z,14.77
2022-09-01T06:35:25.145Z,15.65
2022-09-01T06:37:52.800Z,14.97
2022-09-01T06:40:41.616Z,15.52
2022-09-01T06:43:12.083Z,17.17
2022-09-01T06:45:54.233Z,15.10
2022-09-01T06:48:23.583Z,14.63
2022-09-01T06:53:42.701Z,13.40
2022-09-01T06:56:13.573Z,13.70
2022-09-01T06:58:41.993Z,13.05
2022-09-01T07:01:15.519Z,12.07
2022-09-01T07:03:43.895Z,11.47
2022-09-01T07:09:50.118Z,11.02
2022-09-01T07:12:35.265Z,11.48
2022-09-01T07:17:52.449Z,12.40
2022-09-01T07:20:24.469Z,10.57
2022-09-01T07:23:09.144Z,9.45
2022-09-01T07:26:02.321Z,9.02
2022-09-01T07:39:53.107Z,9.25
2022-09-01T07:42:31.639Z,9.77
2022-09-01T07:43:12.975Z,8.13
2022-09-01T07:45:59.751Z,6.87
2022-09-01T07:48:36.952Z,8.15
2022-09-01T07:51:36.920Z,8.38
2022-09-01T07:54:06.249Z,6.78
2022-09-01T07:56:39.950Z,8.38
2022-09-01T07:59:12.696Z,9.40
2022-09-01T08:02:06.059Z,7.85
2022-09-01T08:04:34.242Z,6.90
2022-09-01T08:07:01.744Z,10.02
2022-09-01T08:09:38.211Z,8.55
2022-09-01T08:12:11.577Z,7.80
2022-09-01T08:14:43.686Z,7.40
2022-09-01T08:17:18.262Z,8.07
2022-09-01T08:20:00.731Z,7.07
2022-09-01T08:22:53.566Z,5.88
2022-09-01T08:25:25.043Z,6.03
2022-09-01T08:27:59.663Z,6.18
2022-09-01T08:30:27.942Z,5.72
2022-09-01T08:32:55.006Z,6.13
2022-09-01T08:35:22.682Z,7.85
2022-09-01T08:37:49.926Z,6.87
2022-09-01T08:40:20.315Z,5.70
2022-09-01T08:42:59.822Z,6.00
2022-09-01T08:45:49.773Z,6.20
2022-09-01T08:51:23.140Z,7.37
2022-09-01T08:54:10.929Z,4.57
2022-09-01T08:56:38.075Z,5.88
2022-09-01T08:59:09.646Z,4.50
2022-09-01T09:02:27.215Z,5.53
2022-09-01T09:05:15.465Z,5.97
2022-09-01T09:08:07.910Z,6.28
2022-09-01T09:10:53.397Z,5.65
2022-09-01T09:13:43.753Z,5.60
2022-09-01T09:16:21.702Z,5.82
2022-09-01T09:18:55.607Z,5.30
2022-09-01T09:21:30.054Z,4.80
2022-09-01T09:24:06.696Z,5.38
2022-09-01T09:26:48.805Z,5.65
2022-09-01T09:29:15.925Z,5.95
2022-09-01T09:31:50.013Z,5.97
2022-09-01T09:34:19.232Z,5.60
2022-09-01T09:36:54.003Z,5.30
2022-09-01T09:39:23.227Z,4.85
2022-09-01T09:42:12.345Z,5.10
2022-09-01T09:44:45.262Z,5.10
2022-09-01T09:47:44.174Z,4.72
2022-09-01T09:50:24.447Z,5.00
2022-09-01T09:52:53.014Z,6.78
2022-09-01T09:55:30.174Z,6.90
2022-09-01T09:58:01.217Z,6.03
2022-09-01T10:00:35.397Z,5.95
2022-09-01T10:03:10.158Z,4.70
2022-09-01T10:05:53.200Z,5.47
2022-09-01T10:08:37.132Z,6.13
2022-09-01T10:11:08.047Z,4.87
2022-09-01T10:13:36.599Z,6.43
2022-09-01T10:16:16.093Z,5.53
2022-09-01T10:18:51.374Z,5.35
2022-09-01T10:21:25.872Z,5.15
2022-09-01T10:23:53.678Z,5.23
2022-09-01T10:26:29.717Z,5.40
2022-09-01T10:29:01.253Z,5.05
2022-09-01T10:31:32.568Z,5.75
2022-09-01T10:34:03.241Z,5.18
2022-09-01T10:36:35.781Z,5.60
2022-09-01T10:39:09.013Z,5.70
2022-09-01T10:42:00.487Z,5.30
2022-09-01T10:44:33.769Z,5.30
2022-09-01T10:47:08.321Z,5.35
2022-09-01T10:49:46.891Z,5.07
2022-09-01T10:52:43.402Z,4.90
2022-09-01T10:55:24.690Z,5.55
2022-09-01T10:59:29.757Z,4.40
2022-09-01T11:01:11.188Z,4.40
2022-09-01T11:03:57.050Z,4.37
2022-09-01T11:07:14.481Z,4.82
2022-09-01T11:09:45.993Z,5.78
2022-09-01T11:12:47.366Z,4.55
2022-09-01T11:15:14.087Z,4.38
2022-09-01T11:17:50.936Z,5.03
2022-09-01T11:20:36.023Z,5.28
2022-09-01T11:23:05.297Z,7.05
2022-09-01T11:25:45.818Z,5.57
2022-09-01T11:28:18.008Z,4.82
2022-09-01T11:31:03.988Z,5.50
2022-09-01T11:33:55.375Z,8.55
2022-09-01T11:36:35.954Z,5.28
2022-09-01T11:39:08.374Z,5.57
2022-09-01T11:41:45.021Z,6.95
2022-09-01T11:44:28.045Z,6.93
2022-09-01T11:47:02.813Z,5.00
2022-09-01T11:49:32.742Z,5.93
2022-09-01T11:52:01.383Z,8.23
2022-09-01T11:54:37.738Z,6.20
2022-09-01T11:57:31.761Z,8.97
2022-09-01T12:00:01.207Z,9.85
2022-09-01T12:02:36.604Z,6.43
2022-09-01T12:05:42.769Z,5.72
2022-09-01T12:08:15.092Z,5.60
2022-09-01T12:10:44.398Z,5.60
2022-09-01T12:13:21.441Z,7.47
2022-09-01T12:16:17.079Z,5.07
2022-09-01T12:18:47.425Z,5.70
2022-09-01T12:21:24.714Z,5.25
2022-09-01T12:23:52.276Z,7.90
2022-09-01T12:26:25.346Z,5.05
2022-09-01T12:28:53.218Z,5.50
2022-09-01T12:31:24.701Z,5.15
2022-09-01T12:33:53.945Z,5.25
2022-09-01T12:36:22.832Z,6.47
2022-09-01T12:38:50.673Z,4.75
2022-09-01T12:41:40.016Z,5.70
2022-09-01T12:44:26.556Z,6.03
2022-09-01T12:46:53.864Z,4.95
2022-09-01T12:49:28.451Z,5.83
2022-09-01T12:52:20.662Z,5.70
2022-09-01T12:54:54.596Z,6.85
2022-09-01T12:57:49.617Z,6.82
2022-09-01T13:00:21.834Z,6.32
2022-09-01T13:03:17.926Z,7.63
2022-09-01T13:05:47.236Z,5.63
2022-09-01T13:08:18.342Z,7.03
2022-09-01T13:10:48.748Z,8.07
2022-09-01T13:13:17.323Z,6.95
2022-09-01T13:15:48.247Z,7.77
2022-09-01T13:18:16.726Z,5.35
2022-09-01T13:20:44.336Z,5.30
2022-09-01T13:23:12.697Z,5.53
2022-09-01T13:25:40.447Z,6.30
2022-09-01T13:28:07.865Z,6.20
2022-09-01T13:30:35.739Z,5.95
2022-09-01T13:33:19.224Z,6.63
2022-09-01T13:35:48.197Z,7.50
2022-09-01T13:38:16.757Z,5.30
2022-09-01T13:40:46.133Z,5.60
2022-09-01T13:43:15.371Z,7.30
2022-09-01T13:45:45.053Z,4.97
2022-09-01T13:48:16.953Z,5.93
2022-09-01T13:53:33.763Z,6.50
2022-09-01T13:56:00.662Z,4.50
2022-09-01T13:58:27.368Z,6.70
2022-09-01T14:00:54.365Z,5.00
2022-09-01T14:03:23.316Z,7.18
2022-09-01T14:05:50.748Z,6.70
2022-09-01T14:08:20.912Z,6.10
2022-09-01T14:10:51.052Z,6.15
2022-09-01T14:13:20.589Z,5.55
2022-09-01T14:15:48.282Z,6.00
2022-09-01T14:18:16.317Z,6.80
2022-09-01T14:20:47.257Z,6.65
2022-09-01T14:23:15.426Z,6.53
2022-09-01T14:25:45.521Z,5.75
2022-09-01T14:28:13.278Z,6.25
2022-09-01T14:30:42.893Z,6.37
2022-09-01T14:33:10.389Z,7.28
2022-09-01T14:35:42.097Z,6.10
2022-09-01T14:38:09.344Z,5.05
2022-09-01T14:40:38.811Z,11.00
2022-09-01T14:43:09.800Z,6.53
2022-09-01T14:45:37.733Z,6.05
2022-09-01T14:48:05.782Z,5.57
2022-09-01T14:50:34.120Z,6.53
2022-09-01T14:53:02.395Z,4.78
2022-09-01T14:55:30.763Z,5.70
2022-09-01T14:57:59.873Z,5.53
2022-09-01T15:00:26.822Z,5.60
2022-09-01T15:02:55.408Z,6.47
2022-09-01T15:05:24.246Z,6.13
2022-09-01T15:07:51.975Z,6.40
2022-09-01T15:10:25.311Z,5.50
2022-09-01T15:12:57.401Z,6.43
2022-09-01T15:15:25.644Z,5.53
2022-09-01T15:17:53.102Z,7.65
2022-09-01T15:20:38.911Z,6.17
2022-09-01T15:23:06.636Z,6.68
2022-09-01T15:25:34.374Z,5.47
2022-09-01T15:28:01.360Z,5.40
2022-09-01T15:30:28.517Z,6.78
2022-09-01T15:32:55.944Z,7.90
2022-09-01T15:35:22.965Z,5.50
2022-09-01T15:37:51.703Z,6.22
2022-09-01T15:40:19.200Z,5.88
2022-09-01T15:42:46.650Z,6.80
2022-09-01T15:45:20.811Z,5.43
2022-09-01T15:47:50.875Z,8.00
2022-09-01T15:50:22.323Z,6.28
2022-09-01T15:53:01.603Z,5.80
2022-09-01T15:55:31.932Z,7.13
2022-09-01T15:57:59.303Z,7.33
2022-09-01T16:00:27.442Z,7.13
2022-09-01T16:02:56.396Z,5.90
2022-09-01T16:05:25.103Z,6.25
2022-09-01T16:07:53.459Z,9.00
2022-09-01T16:10:21.449Z,7.50
2022-09-01T16:12:49.827Z,6.03
2022-09-01T16:15:19.117Z,6.55
2022-09-01T16:17:55.697Z,5.70
2022-09-01T16:20:25.787Z,7.53
2022-09-01T16:23:06.158Z,5.93
2022-09-01T16:25:34.696Z,6.72
2022-09-01T16:28:07.225Z,8.00
2022-09-01T16:30:34.381Z,7.45
2022-09-01T16:33:04.252Z,6.18
2022-09-01T16:35:44.785Z,6.17
2022-09-01T16:38:36.387Z,5.72
2022-09-01T16:41:12.090Z,4.97
2022-09-01T16:43:50.238Z,5.28
2022-09-01T16:46:30.296Z,5.43
2022-09-01T16:49:29.721Z,6.90
2022-09-01T16:52:05.426Z,5.35
2022-09-01T16:55:09.482Z,6.80
2022-09-01T16:57:59.059Z,5.55
2022-09-01T17:00:37.091Z,6.57
2022-09-01T17:03:19.288Z,5.60
2022-09-01T17:06:02.872Z,6.47
2022-09-01T17:08:41.756Z,8.30
2022-09-01T17:11:19.148Z,6.20
2022-09-01T17:13:51.760Z,6.05
2022-09-01T17:16:30.093Z,9.93
2022-09-01T17:19:04.716Z,7.18
2022-09-01T17:21:45.060Z,5.97
2022-09-01T17:24:28.362Z,7.50
2022-09-01T17:27:07.606Z,5.93
2022-09-01T17:29:43.470Z,8.00
2022-09-01T17:32:48.121Z,7.15
2022-09-01T17:35:29.811Z,6.32
2022-09-01T17:38:18.375Z,5.90
2022-09-01T17:41:05.471Z,7.25
2022-09-01T17:43:49.682Z,6.13
2022-09-01T17:46:31.121Z,7.30
2022-09-01T17:49:22.703Z,6.40
2022-09-01T17:52:22.775Z,5.80
2022-09-01T17:55:11.285Z,7.05
2022-09-01T17:58:00.388Z,6.13
2022-09-01T18:00:34.753Z,6.78
2022-09-01T18:03:22.582Z,5.65
2022-09-01T18:05:59.619Z,8.55
2022-09-01T18:08:30.525Z,7.05
2022-09-01T18:11:01.903Z,6.50
2022-09-01T18:13:53.301Z,8.45
2022-09-01T18:16:52.917Z,7.07
2022-09-01T18:19:24.443Z,6.10
2022-09-01T18:22:00.969Z,7.80
2022-09-01T18:24:55.443Z,6.40
2022-09-01T18:27:24.997Z,7.97
2022-09-01T18:29:53.791Z,6.70
2022-09-01T18:32:27.509Z,6.85
2022-09-01T18:35:08.005Z,9.32
2022-09-01T18:38:19.170Z,8.87
2022-09-01T18:41:04.184Z,8.82
2022-09-01T18:43:37.799Z,7.45
2022-09-01T18:46:31.564Z,6.65
2022-09-01T18:49:24.647Z,8.35
2022-09-01T18:52:08.628Z,9.10
2022-09-01T18:54:43.832Z,7.68
2022-09-01T18:57:18.426Z,7.63
2022-09-01T19:00:18.920Z,6.47
2022-09-01T19:03:11.964Z,7.20
2022-09-01T19:06:06.431Z,5.97
2022-09-01T19:08:48.132Z,8.13
2022-09-01T19:11:30.908Z,7.65
2022-09-01T19:14:15.824Z,6.88
2022-09-01T19:17:09.134Z,6.75
2022-09-01T19:19:43.789Z,6.80
2022-09-01T19:22:18.849Z,7.18
2022-09-01T19:25:22.448Z,6.50
2022-09-01T19:28:07.538Z,8.95
2022-09-01T19:30:41.432Z,6.82
2022-09-01T19:33:12.770Z,7.90
2022-09-01T19:35:42.667Z,6.28
2022-09-01T19:38:17.322Z,7.03
2022-09-01T19:40:52.352Z,7.65
2022-09-01T19:43:21.004Z,7.75
2022-09-01T19:46:00.224Z,7.80
2022-09-01T19:48:46.154Z,7.50
2022-09-01T19:51:22.511Z,7.28
2022-09-01T19:54:09.082Z,7.03
2022-09-01T19:57:10.456Z,6.78
2022-09-01T19:59:52.897Z,7.77
2022-09-01T20:02:37.693Z,7.03
2022-09-01T20:05:13.830Z,8.02
2022-09-01T20:08:06.779Z,9.25
2022-09-01T20:11:01.366Z,9.95
2022-09-01T20:13:43.884Z,7.70
2022-09-01T20:16:26.313Z,8.30
2022-09-01T20:19:01.953Z,8.65
2022-09-01T20:21:29.025Z,7.40
2022-09-01T20:24:03.297Z,9.07
2022-09-01T20:26:44.657Z,8.73
2022-09-01T20:29:21.311Z,7.63
2022-09-01T20:31:52.783Z,7.80
2022-09-01T20:34:29.273Z,9.55
2022-09-01T20:37:03.332Z,13.70
2022-09-01T20:39:51.873Z,8.80
2022-09-01T20:42:32.386Z,7.53
2022-09-01T20:45:06.568Z,7.43
2022-09-01T20:47:33.753Z,7.55
2022-09-01T20:50:02.720Z,7.38
2022-09-01T20:52:39.331Z,9.77
2022-09-01T20:55:15.007Z,8.85
2022-09-01T20:58:05.120Z,13.57
2022-09-01T21:00:43.158Z,9.15
2022-09-01T21:03:33.769Z,8.15
2022-09-01T21:06:04.406Z,9.27
2022-09-01T21:08:46.445Z,7.32
2022-09-01T21:11:32.276Z,9.95
2022-09-01T21:14:25.548Z,10.05
2022-09-01T21:17:31.979Z,7.55
2022-09-01T21:20:11.440Z,8.43
2022-09-01T21:22:38.432Z,9.02
2022-09-01T21:25:05.869Z,7.85
2022-09-01T21:27:40.557Z,7.60
2022-09-01T21:30:11.412Z,9.15
2022-09-01T21:32:39.167Z,7.80
2022-09-01T21:35:08.654Z,8.45
2022-09-01T21:37:36.376Z,8.85
2022-09-01T21:40:04.214Z,8.70
2022-09-01T21:42:55.668Z,10.10
2022-09-01T21:45:23.388Z,9.80
2022-09-01T21:47:51.559Z,8.15
2022-09-01T21:50:22.704Z,8.48
2022-09-01T21:52:50.227Z,7.72
2022-09-01T21:55:22.516Z,8.50
2022-09-01T21:57:50.853Z,7.80
2022-09-01T22:00:21.883Z,8.88
2022-09-01T22:02:48.701Z,8.20
2022-09-01T22:05:15.806Z,9.73
2022-09-01T22:07:45.730Z,7.80
2022-09-01T22:10:16.456Z,7.93
2022-09-01T22:12:45.577Z,7.03
2022-09-01T22:15:15.249Z,7.75
2022-09-01T22:17:42.903Z,7.15
2022-09-01T22:20:12.416Z,7.45
2022-09-01T22:22:40.783Z,7.17
2022-09-01T22:25:14.656Z,8.95
2022-09-01T22:27:41.649Z,7.82
2022-09-01T22:30:09.848Z,9.82
2022-09-01T22:32:37.834Z,8.02
2022-09-01T22:35:07.483Z,7.97
2022-09-01T22:37:35.369Z,7.75
2022-09-01T22:40:03.647Z,10.45
2022-09-01T22:42:30.713Z,8.30
2022-09-01T22:44:57.489Z,10.00
2022-09-01T22:47:24.381Z,7.80
2022-09-01T22:49:53.623Z,8.52
2022-09-01T22:52:20.664Z,11.65
2022-09-01T22:54:47.522Z,10.35
2022-09-01T22:57:14.538Z,12.30
2022-09-01T22:59:41.928Z,7.47
2022-09-01T23:02:10.294Z,8.43
2022-09-01T23:04:38.737Z,9.15
2022-09-01T23:07:07.119Z,9.75
2022-09-01T23:09:36.045Z,9.80
2022-09-01T23:12:03.679Z,9.13
2022-09-01T23:14:30.468Z,10.52
2022-09-01T23:16:57.279Z,9.75
2022-09-01T23:19:24.336Z,8.10
2022-09-01T23:21:51.610Z,8.98
2022-09-01T23:24:19.889Z,8.30
2022-09-01T23:26:47.741Z,8.57
2022-09-01T23:29:14.473Z,9.15
2022-09-01T23:31:41.720Z,8.85
2022-09-01T23:34:09.177Z,7.68
2022-09-01T23:36:36.934Z,8.33
2022-09-01T23:39:05.837Z,9.15
2022-09-01T23:41:36.306Z,7.65
2022-09-01T23:44:07.150Z,9.90
2022-09-01T23:46:40.993Z,9.68
2022-09-01T23:49:08.835Z,9.60
2022-09-01T23:51:36.784Z,7.88
2022-09-01T23:54:03.999Z,8.13
2022-09-01T23:56:31.358Z,8.48
2022-09-01T23:59:00.151Z,9.70
